sensor_id;sensor_type;location;lat;lon;timestamp;P1;durP1;ratioP1;P2;durP2;ratioP2
11037;SDS011;5572;49.540;11.932;2023-04-24T00:00:25;18.93;;;17.37;;
11037;SDS011;5572;49.540;11.932;2023-04-24T00:02:52;35.60;;;28.37;;
11037;SDS011;5572;49.540;11.932;2023-04-24T00:05:22;20.33;;;18.63;;
11037;SDS011;5572;49.540;11.932;2023-04-24T00:07:48;17.20;;;15.80;;
11037;SDS011;5572;49.540;11.932;2023-04-24T00:10:17;16.83;;;15.43;;
11037;SDS011;5572;49.540;11.932;2023-04-24T00:12:44;17.73;;;16.33;;
11037;SDS011;5572;49.540;11.932;2023-04-24T00:15:12;17.87;;;16.43;;
11037;SDS011;5572;49.540;11.932;2023-04-24T00:17:39;14.70;;;13.60;;
11037;SDS011;5572;49.540;11.932;2023-04-24T00:20:06;18.40;;;16.87;;
11037;SDS011;5572;49.540;11.932;2023-04-24T00:22:33;17.40;;;16.00;;
11037;SDS011;5572;49.540;11.932;2023-04-24T00:24:59;17.80;;;16.33;;
11037;SDS011;5572;49.540;11.932;2023-04-24T00:27:26;17.70;;;16.27;;
11037;SDS011;5572;49.540;11.932;2023-04-24T00:29:52;16.47;;;15.13;;
11037;SDS011;5572;49.540;11.932;2023-04-24T00:32:20;17.20;;;15.77;;
11037;SDS011;5572;49.540;11.932;2023-04-24T00:34:47;17.27;;;15.93;;
11037;SDS011;5572;49.540;11.932;2023-04-24T00:37:14;19.77;;;18.13;;
11037;SDS011;5572;49.540;11.932;2023-04-24T00:39:40;17.87;;;16.43;;
11037;SDS011;5572;49.540;11.932;2023-04-24T00:42:07;18.90;;;17.43;;
11037;SDS011;5572;49.540;11.932;2023-04-24T00:44:34;17.57;;;16.17;;
11037;SDS011;5572;49.540;11.932;2023-04-24T00:47:01;19.50;;;17.97;;
11037;SDS011;5572;49.540;11.932;2023-04-24T00:49:29;16.70;;;15.37;;
11037;SDS011;5572;49.540;11.932;2023-04-24T00:51:55;17.87;;;16.43;;
11037;SDS011;5572;49.540;11.932;2023-04-24T00:54:24;15.93;;;14.67;;
11037;SDS011;5572;49.540;11.932;2023-04-24T00:56:51;18.00;;;16.60;;
11037;SDS011;5572;49.540;11.932;2023-04-24T00:59:18;16.43;;;15.17;;
11037;SDS011;5572;49.540;11.932;2023-04-24T01:01:45;19.00;;;17.47;;
11037;SDS011;5572;49.540;11.932;2023-04-24T01:04:11;20.00;;;18.47;;
11037;SDS011;5572;49.540;11.932;2023-04-24T01:06:40;17.63;;;16.17;;
11037;SDS011;5572;49.540;11.932;2023-04-24T01:09:09;15.27;;;14.07;;
11037;SDS011;5572;49.540;11.932;2023-04-24T01:11:37;17.83;;;16.40;;
11037;SDS011;5572;49.540;11.932;2023-04-24T01:14:04;31.07;;;28.63;;
11037;SDS011;5572;49.540;11.932;2023-04-24T01:16:31;182.80;;;50.73;;
11037;SDS011;5572;49.540;11.932;2023-04-24T01:18:58;183.07;;;53.57;;
11037;SDS011;5572;49.540;11.932;2023-04-24T01:21:26;170.43;;;49.60;;
11037;SDS011;5572;49.540;11.932;2023-04-24T01:23:55;172.43;;;51.43;;
11037;SDS011;5572;49.540;11.932;2023-04-24T01:26:22;81.20;;;36.00;;
11037;SDS011;5572;49.540;11.932;2023-04-24T01:28:50;310.13;;;68.90;;
11037;SDS011;5572;49.540;11.932;2023-04-24T01:31:17;197.73;;;54.50;;
11037;SDS011;5572;49.540;11.932;2023-04-24T01:33:44;203.27;;;56.70;;
11037;SDS011;5572;49.540;11.932;2023-04-24T01:36:11;172.53;;;47.97;;
11037;SDS011;5572;49.540;11.932;2023-04-24T01:38:38;30.07;;;27.93;;
11037;SDS011;5572;49.540;11.932;2023-04-24T01:41:06;81.67;;;35.20;;
11037;SDS011;5572;49.540;11.932;2023-04-24T01:43:33;32.67;;;30.23;;
11037;SDS011;5572;49.540;11.932;2023-04-24T01:45:59;28.37;;;26.13;;
11037;SDS011;5572;49.540;11.932;2023-04-24T01:48:26;433.90;;;91.40;;
11037;SDS011;5572;49.540;11.932;2023-04-24T01:50:53;197.03;;;52.47;;
11037;SDS011;5572;49.540;11.932;2023-04-24T01:53:20;314.67;;;71.40;;
11037;SDS011;5572;49.540;11.932;2023-04-24T01:55:46;320.83;;;73.80;;
11037;SDS011;5572;49.540;11.932;2023-04-24T01:58:14;28.37;;;26.20;;
11037;SDS011;5572;49.540;11.932;2023-04-24T02:00:41;32.33;;;29.87;;
11037;SDS011;5572;49.540;11.932;2023-04-24T02:03:07;29.50;;;27.17;;
11037;SDS011;5572;49.540;11.932;2023-04-24T02:05:40;30.57;;;28.27;;
11037;SDS011;5572;49.540;11.932;2023-04-24T02:08:09;28.83;;;26.70;;
11037;SDS011;5572;49.540;11.932;2023-04-24T02:10:36;187.00;;;52.33;;
11037;SDS011;5572;49.540;11.932;2023-04-24T02:13:02;36.30;;;33.37;;
11037;SDS011;5572;49.540;11.932;2023-04-24T02:15:31;28.83;;;26.63;;
11037;SDS011;5572;49.540;11.932;2023-04-24T02:17:58;32.03;;;29.53;;
11037;SDS011;5572;49.540;11.932;2023-04-24T02:20:24;27.80;;;25.77;;
11037;SDS011;5572;49.540;11.932;2023-04-24T02:22:51;35.07;;;32.07;;
11037;SDS011;5572;49.540;11.932;2023-04-24T02:25:18;31.17;;;28.60;;
11037;SDS011;5572;49.540;11.932;2023-04-24T02:27:44;26.00;;;24.00;;
11037;SDS011;5572;49.540;11.932;2023-04-24T02:30:11;30.83;;;28.33;;
11037;SDS011;5572;49.540;11.932;2023-04-24T02:32:39;29.27;;;27.00;;
11037;SDS011;5572;49.540;11.932;2023-04-24T02:35:06;29.93;;;27.53;;
11037;SDS011;5572;49.540;11.932;2023-04-24T02:37:34;31.33;;;28.83;;
11037;SDS011;5572;49.540;11.932;2023-04-24T02:40:00;29.67;;;27.37;;
11037;SDS011;5572;49.540;11.932;2023-04-24T02:42:27;29.80;;;27.43;;
11037;SDS011;5572;49.540;11.932;2023-04-24T02:44:54;28.23;;;26.00;;
11037;SDS011;5572;49.540;11.932;2023-04-24T02:47:20;28.43;;;26.07;;
11037;SDS011;5572;49.540;11.932;2023-04-24T02:49:48;28.47;;;26.17;;
11037;SDS011;5572;49.540;11.932;2023-04-24T02:52:15;28.23;;;25.97;;
11037;SDS011;5572;49.540;11.932;2023-04-24T02:54:42;29.50;;;27.20;;
11037;SDS011;5572;49.540;11.932;2023-04-24T02:57:09;28.20;;;25.97;;
11037;SDS011;5572;49.540;11.932;2023-04-24T02:59:35;30.87;;;28.43;;
11037;SDS011;5572;49.540;11.932;2023-04-24T03:02:02;34.40;;;31.70;;
11037;SDS011;5572;49.540;11.932;2023-04-24T03:04:28;29.40;;;27.13;;
11037;SDS011;5572;49.540;11.932;2023-04-24T03:06:56;29.27;;;26.93;;
11037;SDS011;5572;49.540;11.932;2023-04-24T03:09:23;28.50;;;26.47;;
11037;SDS011;5572;49.540;11.932;2023-04-24T03:11:50;27.50;;;25.50;;
11037;SDS011;5572;49.540;11.932;2023-04-24T03:14:16;27.80;;;25.70;;
11037;SDS011;5572;49.540;11.932;2023-04-24T03:16:43;30.03;;;27.70;;
11037;SDS011;5572;49.540;11.932;2023-04-24T03:19:09;30.00;;;27.77;;
11037;SDS011;5572;49.540;11.932;2023-04-24T03:21:36;28.00;;;25.90;;
11037;SDS011;5572;49.540;11.932;2023-04-24T03:24:06;27.93;;;25.67;;
11037;SDS011;5572;49.540;11.932;2023-04-24T03:26:33;30.13;;;27.93;;
11037;SDS011;5572;49.540;11.932;2023-04-24T03:29:00;27.73;;;25.53;;
11037;SDS011;5572;49.540;11.932;2023-04-24T03:31:26;27.57;;;25.27;;
11037;SDS011;5572;49.540;11.932;2023-04-24T03:33:53;29.17;;;26.80;;
11037;SDS011;5572;49.540;11.932;2023-04-24T03:36:19;26.10;;;24.07;;
11037;SDS011;5572;49.540;11.932;2023-04-24T03:38:46;27.67;;;25.40;;
11037;SDS011;5572;49.540;11.932;2023-04-24T03:41:14;28.80;;;26.50;;
11037;SDS011;5572;49.540;11.932;2023-04-24T03:43:40;28.33;;;26.03;;
11037;SDS011;5572;49.540;11.932;2023-04-24T03:46:07;29.27;;;26.93;;
11037;SDS011;5572;49.540;11.932;2023-04-24T03:48:34;31.80;;;29.27;;
11037;SDS011;5572;49.540;11.932;2023-04-24T03:51:00;28.67;;;26.30;;
11037;SDS011;5572;49.540;11.932;2023-04-24T03:53:27;26.50;;;24.33;;
11037;SDS011;5572;49.540;11.932;2023-04-24T03:55:54;27.27;;;25.00;;
11037;SDS011;5572;49.540;11.932;2023-04-24T03:58:22;27.77;;;25.73;;
11037;SDS011;5572;49.540;11.932;2023-04-24T04:00:48;28.00;;;25.73;;
11037;SDS011;5572;49.540;11.932;2023-04-24T04:03:16;32.60;;;30.17;;
11037;SDS011;5572;49.540;11.932;2023-04-24T04:05:42;31.53;;;28.97;;
11037;SDS011;5572;49.540;11.932;2023-04-24T04:08:09;28.93;;;26.57;;
11037;SDS011;5572;49.540;11.932;2023-04-24T04:10:35;24.80;;;22.83;;
11037;SDS011;5572;49.540;11.932;2023-04-24T04:13:02;35.03;;;32.13;;
11037;SDS011;5572;49.540;11.932;2023-04-24T04:15:30;28.93;;;26.50;;
11037;SDS011;5572;49.540;11.932;2023-04-24T04:17:56;29.63;;;27.27;;
11037;SDS011;5572;49.540;11.932;2023-04-24T04:20:23;36.00;;;33.20;;
11037;SDS011;5572;49.540;11.932;2023-04-24T04:22:50;58.70;;;54.13;;
11037;SDS011;5572;49.540;11.932;2023-04-24T04:25:16;29.97;;;27.50;;
11037;SDS011;5572;49.540;11.932;2023-04-24T04:27:44;29.00;;;26.60;;
11037;SDS011;5572;49.540;11.932;2023-04-24T04:30:12;29.27;;;26.90;;
11037;SDS011;5572;49.540;11.932;2023-04-24T04:32:40;27.87;;;25.57;;
11037;SDS011;5572;49.540;11.932;2023-04-24T04:35:07;29.80;;;27.40;;
11037;SDS011;5572;49.540;11.932;2023-04-24T04:37:34;28.97;;;26.63;;
11037;SDS011;5572;49.540;11.932;2023-04-24T04:40:01;27.80;;;25.53;;
11037;SDS011;5572;49.540;11.932;2023-04-24T04:42:31;29.97;;;27.57;;
11037;SDS011;5572;49.540;11.932;2023-04-24T04:44:59;28.13;;;25.87;;
11037;SDS011;5572;49.540;11.932;2023-04-24T04:47:27;26.70;;;24.50;;
11037;SDS011;5572;49.540;11.932;2023-04-24T04:49:58;28.97;;;26.63;;
11037;SDS011;5572;49.540;11.932;2023-04-24T04:52:24;26.33;;;24.27;;
11037;SDS011;5572;49.540;11.932;2023-04-24T04:54:51;28.20;;;26.03;;
11037;SDS011;5572;49.540;11.932;2023-04-24T04:57:18;33.83;;;31.17;;
11037;SDS011;5572;49.540;11.932;2023-04-24T04:59:45;42.90;;;39.27;;
11037;SDS011;5572;49.540;11.932;2023-04-24T05:02:12;33.13;;;30.47;;
11037;SDS011;5572;49.540;11.932;2023-04-24T05:04:38;31.00;;;28.53;;
11037;SDS011;5572;49.540;11.932;2023-04-24T05:07:06;29.03;;;26.67;;
11037;SDS011;5572;49.540;11.932;2023-04-24T05:09:33;29.63;;;27.13;;
11037;SDS011;5572;49.540;11.932;2023-04-24T05:11:59;28.87;;;26.93;;
11037;SDS011;5572;49.540;11.932;2023-04-24T05:14:27;27.03;;;24.77;;
11037;SDS011;5572;49.540;11.932;2023-04-24T05:16:53;28.27;;;26.00;;
11037;SDS011;5572;49.540;11.932;2023-04-24T05:19:20;28.60;;;26.43;;
11037;SDS011;5572;49.540;11.932;2023-04-24T05:21:46;29.10;;;26.77;;
11037;SDS011;5572;49.540;11.932;2023-04-24T05:24:14;30.53;;;28.23;;
11037;SDS011;5572;49.540;11.932;2023-04-24T05:26:41;29.43;;;27.07;;
11037;SDS011;5572;49.540;11.932;2023-04-24T05:29:07;27.63;;;25.40;;
11037;SDS011;5572;49.540;11.932;2023-04-24T05:31:34;30.53;;;28.07;;
11037;SDS011;5572;49.540;11.932;2023-04-24T05:34:00;27.07;;;24.87;;
11037;SDS011;5572;49.540;11.932;2023-04-24T05:36:27;29.97;;;27.63;;
11037;SDS011;5572;49.540;11.932;2023-04-24T05:38:53;26.00;;;23.83;;
11037;SDS011;5572;49.540;11.932;2023-04-24T05:41:21;30.47;;;28.00;;
11037;SDS011;5572;49.540;11.932;2023-04-24T05:43:48;30.30;;;27.90;;
11037;SDS011;5572;49.540;11.932;2023-04-24T05:46:14;30.73;;;28.40;;
11037;SDS011;5572;49.540;11.932;2023-04-24T05:48:41;30.00;;;27.57;;
11037;SDS011;5572;49.540;11.932;2023-04-24T05:51:08;28.37;;;26.20;;
11037;SDS011;5572;49.540;11.932;2023-04-24T05:53:35;29.60;;;27.33;;
11037;SDS011;5572;49.540;11.932;2023-04-24T05:56:02;27.07;;;24.97;;
11037;SDS011;5572;49.540;11.932;2023-04-24T05:58:30;28.77;;;26.53;;
11037;SDS011;5572;49.540;11.932;2023-04-24T06:00:56;27.77;;;25.63;;
11037;SDS011;5572;49.540;11.932;2023-04-24T06:03:23;30.83;;;28.37;;
11037;SDS011;5572;49.540;11.932;2023-04-24T06:05:50;28.43;;;26.37;;
11037;SDS011;5572;49.540;11.932;2023-04-24T06:08:17;29.97;;;27.70;;
11037;SDS011;5572;49.540;11.932;2023-04-24T06:10:43;27.20;;;25.33;;
11037;SDS011;5572;49.540;11.932;2023-04-24T06:13:10;29.83;;;27.77;;
11037;SDS011;5572;49.540;11.932;2023-04-24T06:15:38;30.77;;;28.50;;
11037;SDS011;5572;49.540;11.932;2023-04-24T06:18:05;27.00;;;25.07;;
11037;SDS011;5572;49.540;11.932;2023-04-24T06:20:32;30.37;;;28.20;;
11037;SDS011;5572;49.540;11.932;2023-04-24T06:22:59;30.60;;;28.17;;
11037;SDS011;5572;49.540;11.932;2023-04-24T06:25:25;27.40;;;25.43;;
11037;SDS011;5572;49.540;11.932;2023-04-24T06:27:52;29.37;;;27.33;;
11037;SDS011;5572;49.540;11.932;2023-04-24T06:30:19;26.50;;;24.57;;
11037;SDS011;5572;49.540;11.932;2023-04-24T06:32:47;26.10;;;24.17;;
11037;SDS011;5572;49.540;11.932;2023-04-24T06:35:14;27.50;;;25.47;;
11037;SDS011;5572;49.540;11.932;2023-04-24T06:37:41;30.50;;;28.30;;
11037;SDS011;5572;49.540;11.932;2023-04-24T06:40:08;27.13;;;25.13;;
11037;SDS011;5572;49.540;11.932;2023-04-24T06:42:35;28.63;;;26.60;;
11037;SDS011;5572;49.540;11.932;2023-04-24T06:45:02;31.67;;;29.43;;
11037;SDS011;5572;49.540;11.932;2023-04-24T06:47:30;27.93;;;26.00;;
11037;SDS011;5572;49.540;11.932;2023-04-24T06:49:58;28.80;;;26.70;;
11037;SDS011;5572;49.540;11.932;2023-04-24T06:52:24;30.17;;;27.97;;
11037;SDS011;5572;49.540;11.932;2023-04-24T06:54:51;30.53;;;28.30;;
11037;SDS011;5572;49.540;11.932;2023-04-24T06:57:18;33.23;;;30.77;;
11037;SDS011;5572;49.540;11.932;2023-04-24T06:59:46;27.47;;;25.63;;
11037;SDS011;5572;49.540;11.932;2023-04-24T07:02:12;30.60;;;28.43;;
11037;SDS011;5572;49.540;11.932;2023-04-24T07:04:39;34.13;;;31.67;;
11037;SDS011;5572;49.540;11.932;2023-04-24T07:07:08;30.97;;;28.60;;
11037;SDS011;5572;49.540;11.932;2023-04-24T07:09:38;32.47;;;30.10;;
11037;SDS011;5572;49.540;11.932;2023-04-24T07:12:06;32.00;;;29.57;;
11037;SDS011;5572;49.540;11.932;2023-04-24T07:14:33;29.83;;;27.40;;
11037;SDS011;5572;49.540;11.932;2023-04-24T07:16:59;31.93;;;29.60;;
11037;SDS011;5572;49.540;11.932;2023-04-24T07:19:26;31.90;;;29.47;;
11037;SDS011;5572;49.540;11.932;2023-04-24T07:21:52;30.07;;;27.77;;
11037;SDS011;5572;49.540;11.932;2023-04-24T07:24:21;32.83;;;30.20;;
11037;SDS011;5572;49.540;11.932;2023-04-24T07:26:47;30.17;;;27.90;;
11037;SDS011;5572;49.540;11.932;2023-04-24T07:29:14;30.93;;;28.47;;
11037;SDS011;5572;49.540;11.932;2023-04-24T07:31:41;478.10;;;115.33;;
11037;SDS011;5572;49.540;11.932;2023-04-24T07:34:07;476.03;;;112.90;;
11037;SDS011;5572;49.540;11.932;2023-04-24T07:36:34;216.83;;;66.93;;
11037;SDS011;5572;49.540;11.932;2023-04-24T07:39:00;343.20;;;87.30;;
11037;SDS011;5572;49.540;11.932;2023-04-24T07:41:29;347.50;;;90.37;;
11037;SDS011;5572;49.540;11.932;2023-04-24T07:43:55;347.23;;;86.37;;
11037;SDS011;5572;49.540;11.932;2023-04-24T07:46:22;473.57;;;110.03;;
11037;SDS011;5572;49.540;11.932;2023-04-24T07:48:49;342.40;;;84.80;;
11037;SDS011;5572;49.540;11.932;2023-04-24T07:51:16;204.33;;;55.80;;
11037;SDS011;5572;49.540;11.932;2023-04-24T07:53:43;179.53;;;53.00;;
11037;SDS011;5572;49.540;11.932;2023-04-24T07:56:09;28.80;;;26.67;;
11037;SDS011;5572;49.540;11.932;2023-04-24T07:58:37;80.87;;;36.00;;
11037;SDS011;5572;49.540;11.932;2023-04-24T08:11:16;332.97;;;79.30;;
11037;SDS011;5572;49.540;11.932;2023-04-24T08:13:44;338.87;;;81.70;;
11037;SDS011;5572;49.540;11.932;2023-04-24T08:16:11;332.37;;;78.50;;
11037;SDS011;5572;49.540;11.932;2023-04-24T08:18:37;31.73;;;29.20;;
11037;SDS011;5572;49.540;11.932;2023-04-24T08:21:04;207.77;;;59.17;;
11037;SDS011;5572;49.540;11.932;2023-04-24T08:23:31;206.87;;;58.47;;
11037;SDS011;5572;49.540;11.932;2023-04-24T08:25:58;206.13;;;60.20;;
11037;SDS011;5572;49.540;11.932;2023-04-24T08:28:25;204.90;;;58.40;;
11037;SDS011;5572;49.540;11.932;2023-04-24T08:30:53;336.17;;;81.97;;
11037;SDS011;5572;49.540;11.932;2023-04-24T08:33:20;333.67;;;79.87;;
11037;SDS011;5572;49.540;11.932;2023-04-24T08:35:46;339.67;;;83.70;;
11037;SDS011;5572;49.540;11.932;2023-04-24T08:38:13;194.33;;;56.50;;
11037;SDS011;5572;49.540;11.932;2023-04-24T08:40:39;342.33;;;86.60;;
11037;SDS011;5572;49.540;11.932;2023-04-24T08:43:07;346.67;;;89.23;;
11037;SDS011;5572;49.540;11.932;2023-04-24T08:45:34;345.30;;;89.33;;
11037;SDS011;5572;49.540;11.932;2023-04-24T08:48:02;340.53;;;84.30;;
11037;SDS011;5572;49.540;11.932;2023-04-24T08:50:30;343.47;;;87.27;;
11037;SDS011;5572;49.540;11.932;2023-04-24T08:52:58;342.87;;;87.73;;
11037;SDS011;5572;49.540;11.932;2023-04-24T08:55:25;458.77;;;104.20;;
11037;SDS011;5572;49.540;11.932;2023-04-24T08:57:52;336.77;;;82.33;;
11037;SDS011;5572;49.540;11.932;2023-04-24T09:00:20;467.70;;;106.57;;
11037;SDS011;5572;49.540;11.932;2023-04-24T09:02:48;65.50;;;35.30;;
11037;SDS011;5572;49.540;11.932;2023-04-24T09:05:17;338.30;;;84.97;;
11037;SDS011;5572;49.540;11.932;2023-04-24T09:07:45;323.47;;;85.00;;
11037;SDS011;5572;49.540;11.932;2023-04-24T09:10:15;209.10;;;61.13;;
11037;SDS011;5572;49.540;11.932;2023-04-24T09:12:41;34.20;;;31.47;;
11037;SDS011;5572;49.540;11.932;2023-04-24T09:15:10;209.43;;;62.43;;
11037;SDS011;5572;49.540;11.932;2023-04-24T09:17:37;66.17;;;36.73;;
11037;SDS011;5572;49.540;11.932;2023-04-24T09:20:04;335.23;;;83.93;;
11037;SDS011;5572;49.540;11.932;2023-04-24T09:22:33;200.53;;;59.43;;
11037;SDS011;5572;49.540;11.932;2023-04-24T09:25:01;313.87;;;77.33;;
11037;SDS011;5572;49.540;11.932;2023-04-24T09:27:30;327.50;;;78.90;;
11037;SDS011;5572;49.540;11.932;2023-04-24T09:29:57;317.50;;;79.17;;
11037;SDS011;5572;49.540;11.932;2023-04-24T09:32:24;314.57;;;78.93;;
11037;SDS011;5572;49.540;11.932;2023-04-24T09:35:04;32.50;;;29.73;;
11037;SDS011;5572;49.540;11.932;2023-04-24T09:37:36;450.27;;;100.37;;
11037;SDS011;5572;49.540;11.932;2023-04-24T09:42:51;331.23;;;79.17;;
11037;SDS011;5572;49.540;11.932;2023-04-24T09:45:19;453.67;;;101.97;;
11037;SDS011;5572;49.540;11.932;2023-04-24T09:47:46;203.90;;;58.73;;
11037;SDS011;5572;49.540;11.932;2023-04-24T09:50:17;333.87;;;81.37;;
11037;SDS011;5572;49.540;11.932;2023-04-24T09:52:46;32.40;;;29.90;;
11037;SDS011;5572;49.540;11.932;2023-04-24T09:55:21;31.70;;;29.17;;
11037;SDS011;5572;49.540;11.932;2023-04-24T09:57:49;331.27;;;78.63;;
11037;SDS011;5572;49.540;11.932;2023-04-24T10:00:22;325.90;;;77.37;;
11037;SDS011;5572;49.540;11.932;2023-04-24T10:02:54;200.13;;;57.80;;
11037;SDS011;5572;49.540;11.932;2023-04-24T10:05:29;202.43;;;60.33;;
11037;SDS011;5572;49.540;11.932;2023-04-24T10:07:59;334.80;;;83.63;;
11037;SDS011;5572;49.540;11.932;2023-04-24T10:10:27;336.03;;;84.03;;
11037;SDS011;5572;49.540;11.932;2023-04-24T10:12:55;342.17;;;87.67;;
11037;SDS011;5572;49.540;11.932;2023-04-24T10:15:21;109.97;;;41.80;;
11037;SDS011;5572;49.540;11.932;2023-04-24T10:17:48;32.67;;;29.97;;
11037;SDS011;5572;49.540;11.932;2023-04-24T10:20:18;335.50;;;85.77;;
11037;SDS011;5572;49.540;11.932;2023-04-24T10:22:46;340.77;;;86.43;;
11037;SDS011;5572;49.540;11.932;2023-04-24T10:25:17;339.97;;;89.23;;
11037;SDS011;5572;49.540;11.932;2023-04-24T10:27:46;467.80;;;112.23;;
11037;SDS011;5572;49.540;11.932;2023-04-24T10:30:13;340.30;;;84.70;;
11037;SDS011;5572;49.540;11.932;2023-04-24T10:32:41;473.23;;;112.07;;
11037;SDS011;5572;49.540;11.932;2023-04-24T10:35:08;68.67;;;38.63;;
11037;SDS011;5572;49.540;11.932;2023-04-24T10:37:35;64.10;;;35.20;;
11037;SDS011;5572;49.540;11.932;2023-04-24T10:40:04;340.93;;;85.17;;
11037;SDS011;5572;49.540;11.932;2023-04-24T10:42:34;211.33;;;62.83;;
11037;SDS011;5572;49.540;11.932;2023-04-24T10:45:04;338.47;;;83.60;;
11037;SDS011;5572;49.540;11.932;2023-04-24T10:47:39;35.17;;;32.23;;
11037;SDS011;5572;49.540;11.932;2023-04-24T10:50:07;32.33;;;29.73;;
11037;SDS011;5572;49.540;11.932;2023-04-24T10:52:44;32.70;;;30.07;;
11037;SDS011;5572;49.540;11.932;2023-04-24T10:55:12;34.80;;;32.00;;
11037;SDS011;5572;49.540;11.932;2023-04-24T10:57:40;32.93;;;30.20;;
11037;SDS011;5572;49.540;11.932;2023-04-24T11:03:00;39.37;;;36.17;;
11037;SDS011;5572;49.540;11.932;2023-04-24T11:08:16;34.00;;;31.20;;
11037;SDS011;5572;49.540;11.932;2023-04-24T11:10:54;35.63;;;32.73;;
11037;SDS011;5572;49.540;11.932;2023-04-24T11:13:24;35.10;;;32.13;;
11037;SDS011;5572;49.540;11.932;2023-04-24T11:18:40;36.17;;;33.20;;
11037;SDS011;5572;49.540;11.932;2023-04-24T11:21:11;33.77;;;31.00;;
11037;SDS011;5572;49.540;11.932;2023-04-24T11:23:38;40.90;;;37.63;;
11037;SDS011;5572;49.540;11.932;2023-04-24T11:26:12;38.07;;;34.97;;
11037;SDS011;5572;49.540;11.932;2023-04-24T11:28:47;37.97;;;34.97;;
11037;SDS011;5572;49.540;11.932;2023-04-24T11:34:13;36.70;;;33.77;;
11037;SDS011;5572;49.540;11.932;2023-04-24T11:36:42;33.07;;;30.60;;
11037;SDS011;5572;49.540;11.932;2023-04-24T11:39:09;311.57;;;82.03;;
11037;SDS011;5572;49.540;11.932;2023-04-24T11:41:36;451.07;;;105.23;;
11037;SDS011;5572;49.540;11.932;2023-04-24T11:44:06;199.67;;;64.03;;
11037;SDS011;5572;49.540;11.932;2023-04-24T11:46:33;39.90;;;36.70;;
11037;SDS011;5572;49.540;11.932;2023-04-24T11:48:59;36.37;;;33.50;;
11037;SDS011;5572;49.540;11.932;2023-04-24T11:51:27;38.07;;;34.90;;
11037;SDS011;5572;49.540;11.932;2023-04-24T11:53:54;37.13;;;34.03;;
11037;SDS011;5572;49.540;11.932;2023-04-24T12:47:50;33.83;;;31.10;;
11037;SDS011;5572;49.540;11.932;2023-04-24T13:56:22;29.73;;;27.60;;
11037;SDS011;5572;49.540;11.932;2023-04-24T13:59:26;31.87;;;29.60;;
11037;SDS011;5572;49.540;11.932;2023-04-24T14:02:46;33.50;;;31.13;;
11037;SDS011;5572;49.540;11.932;2023-04-24T14:05:14;31.80;;;29.40;;
11037;SDS011;5572;49.540;11.932;2023-04-24T14:38:47;36.30;;;33.53;;
11037;SDS011;5572;49.540;11.932;2023-04-24T14:41:15;35.67;;;32.83;;
11037;SDS011;5572;49.540;11.932;2023-04-24T14:43:42;34.33;;;31.53;;
11037;SDS011;5572;49.540;11.932;2023-04-24T14:46:09;33.53;;;31.07;;
11037;SDS011;5572;49.540;11.932;2023-04-24T14:48:36;34.13;;;31.27;;
11037;SDS011;5572;49.540;11.932;2023-04-24T14:51:02;34.10;;;31.53;;
11037;SDS011;5572;49.540;11.932;2023-04-24T14:53:29;33.27;;;30.63;;
11037;SDS011;5572;49.540;11.932;2023-04-24T14:55:57;37.40;;;34.00;;
11037;SDS011;5572;49.540;11.932;2023-04-24T14:58:24;82.87;;;33.90;;
11037;SDS011;5572;49.540;11.932;2023-04-24T15:00:51;33.73;;;31.10;;
11037;SDS011;5572;49.540;11.932;2023-04-24T15:03:19;38.53;;;35.20;;
11037;SDS011;5572;49.540;11.932;2023-04-24T15:05:47;37.30;;;34.27;;
11037;SDS011;5572;49.540;11.932;2023-04-24T15:08:14;36.00;;;32.83;;
11037;SDS011;5572;49.540;11.932;2023-04-24T15:10:41;35.60;;;32.77;;
11037;SDS011;5572;49.540;11.932;2023-04-24T15:13:09;36.70;;;33.80;;
11037;SDS011;5572;49.540;11.932;2023-04-24T15:15:36;31.73;;;29.37;;
11037;SDS011;5572;49.540;11.932;2023-04-24T15:18:03;36.77;;;33.80;;
11037;SDS011;5572;49.540;11.932;2023-04-24T15:20:30;35.43;;;32.63;;
11037;SDS011;5572;49.540;11.932;2023-04-24T15:22:57;39.50;;;36.17;;
11037;SDS011;5572;49.540;11.932;2023-04-24T15:25:25;37.30;;;34.33;;
11037;SDS011;5572;49.540;11.932;2023-04-24T15:27:52;36.47;;;33.57;;
11037;SDS011;5572;49.540;11.932;2023-04-24T15:30:20;35.30;;;32.40;;
11037;SDS011;5572;49.540;11.932;2023-04-24T15:32:47;34.00;;;31.27;;
11037;SDS011;5572;49.540;11.932;2023-04-24T15:35:13;35.47;;;32.77;;
11037;SDS011;5572;49.540;11.932;2023-04-24T15:37:41;40.57;;;37.27;;
11037;SDS011;5572;49.540;11.932;2023-04-24T15:40:08;37.47;;;34.50;;
11037;SDS011;5572;49.540;11.932;2023-04-24T15:42:38;33.13;;;30.60;;
11037;SDS011;5572;49.540;11.932;2023-04-24T15:45:06;54.13;;;41.13;;
11037;SDS011;5572;49.540;11.932;2023-04-24T16:12:43;31.13;;;28.80;;
11037;SDS011;5572;49.540;11.932;2023-04-24T16:15:10;34.00;;;31.27;;
11037;SDS011;5572;49.540;11.932;2023-04-24T16:17:37;33.40;;;30.83;;
11037;SDS011;5572;49.540;11.932;2023-04-24T16:20:04;34.90;;;32.07;;
11037;SDS011;5572;49.540;11.932;2023-04-24T16:22:31;33.97;;;31.30;;
11037;SDS011;5572;49.540;11.932;2023-04-24T16:24:58;35.07;;;32.30;;
11037;SDS011;5572;49.540;11.932;2023-04-24T16:27:24;33.87;;;31.23;;
11037;SDS011;5572;49.540;11.932;2023-04-24T16:29:52;38.63;;;34.73;;
11037;SDS011;5572;49.540;11.932;2023-04-24T16:32:19;33.70;;;31.07;;
11037;SDS011;5572;49.540;11.932;2023-04-24T16:34:45;33.60;;;30.97;;
11037;SDS011;5572;49.540;11.932;2023-04-24T16:37:12;32.97;;;30.43;;
11037;SDS011;5572;49.540;11.932;2023-04-24T16:39:39;33.50;;;30.93;;
11037;SDS011;5572;49.540;11.932;2023-04-24T16:42:08;34.30;;;31.57;;
11037;SDS011;5572;49.540;11.932;2023-04-24T16:44:35;33.17;;;30.67;;
11037;SDS011;5572;49.540;11.932;2023-04-24T16:47:04;33.30;;;30.73;;
11037;SDS011;5572;49.540;11.932;2023-04-24T16:49:31;36.00;;;33.23;;
11037;SDS011;5572;49.540;11.932;2023-04-24T16:51:57;33.27;;;30.70;;
11037;SDS011;5572;49.540;11.932;2023-04-24T16:54:24;33.03;;;30.53;;
11037;SDS011;5572;49.540;11.932;2023-04-24T16:56:51;35.27;;;32.57;;
11037;SDS011;5572;49.540;11.932;2023-04-24T16:59:19;33.37;;;30.90;;
11037;SDS011;5572;49.540;11.932;2023-04-24T17:01:46;32.47;;;30.00;;
11037;SDS011;5572;49.540;11.932;2023-04-24T17:35:19;37.23;;;34.50;;
11037;SDS011;5572;49.540;11.932;2023-04-24T17:37:46;36.27;;;33.50;;
11037;SDS011;5572;49.540;11.932;2023-04-24T17:40:12;36.53;;;33.93;;
11037;SDS011;5572;49.540;11.932;2023-04-24T17:42:39;34.57;;;32.03;;
11037;SDS011;5572;49.540;11.932;2023-04-24T17:45:06;38.97;;;35.97;;
11037;SDS011;5572;49.540;11.932;2023-04-24T17:47:34;31.87;;;29.60;;
11037;SDS011;5572;49.540;11.932;2023-04-24T17:50:00;33.17;;;30.73;;
11037;SDS011;5572;49.540;11.932;2023-04-24T17:52:28;34.17;;;31.73;;
11037;SDS011;5572;49.540;11.932;2023-04-24T17:55:01;31.47;;;29.33;;
11037;SDS011;5572;49.540;11.932;2023-04-24T20:04:04;30.87;;;28.40;;
11037;SDS011;5572;49.540;11.932;2023-04-24T20:06:31;30.37;;;28.03;;
11037;SDS011;5572;49.540;11.932;2023-04-24T20:08:58;30.33;;;27.97;;
11037;SDS011;5572;49.540;11.932;2023-04-24T20:11:25;29.43;;;27.27;;
11037;SDS011;5572;49.540;11.932;2023-04-24T20:13:51;35.53;;;32.90;;
11037;SDS011;5572;49.540;11.932;2023-04-24T20:16:18;29.73;;;27.50;;